sensor_id;sensor_type;location;lat;lon;timestamp;P1;durP1;ratioP1;P2;durP2;ratioP2
39728;SDS011;25402;42.004;23.088;2023-04-06T00:01:44;11.80;;;7.65;;
39728;SDS011;25402;42.004;23.088;2023-04-06T00:04:13;16.92;;;8.23;;
39728;SDS011;25402;42.004;23.088;2023-04-06T00:06:40;11.80;;;7.38;;
39728;SDS011;25402;42.004;23.088;2023-04-06T00:09:06;14.32;;;7.65;;
39728;SDS011;25402;42.004;23.088;2023-04-06T00:11:33;13.93;;;7.82;;
39728;SDS011;25402;42.004;23.088;2023-04-06T00:14:00;14.63;;;8.38;;
39728;SDS011;25402;42.004;23.088;2023-04-06T00:16:27;10.68;;;7.05;;
39728;SDS011;25402;42.004;23.088;2023-04-06T00:18:53;12.80;;;7.30;;
39728;SDS011;25402;42.004;23.088;2023-04-06T00:21:21;10.50;;;7.10;;
39728;SDS011;25402;42.004;23.088;2023-04-06T00:23:48;14.85;;;8.18;;
39728;SDS011;25402;42.004;23.088;2023-04-06T00:26:15;11.10;;;7.38;;
39728;SDS011;25402;42.004;23.088;2023-04-06T00:28:41;15.50;;;7.57;;
39728;SDS011;25402;42.004;23.088;2023-04-06T00:31:08;11.52;;;7.68;;
39728;SDS011;25402;42.004;23.088;2023-04-06T00:33:35;16.38;;;7.28;;
39728;SDS011;25402;42.004;23.088;2023-04-06T00:36:01;11.75;;;7.80;;
39728;SDS011;25402;42.004;23.088;2023-04-06T00:40:58;12.27;;;7.25;;
39728;SDS011;25402;42.004;23.088;2023-04-06T00:43:24;13.05;;;8.00;;
39728;SDS011;25402;42.004;23.088;2023-04-06T00:45:51;12.63;;;7.70;;
39728;SDS011;25402;42.004;23.088;2023-04-06T00:48:18;12.80;;;8.00;;
39728;SDS011;25402;42.004;23.088;2023-04-06T00:50:45;12.13;;;7.65;;
39728;SDS011;25402;42.004;23.088;2023-04-06T00:53:11;13.80;;;7.78;;
39728;SDS011;25402;42.004;23.088;2023-04-06T00:55:38;12.73;;;6.93;;
39728;SDS011;25402;42.004;23.088;2023-04-06T00:58:06;14.95;;;7.88;;
39728;SDS011;25402;42.004;23.088;2023-04-06T01:00:33;11.52;;;6.97;;
39728;SDS011;25402;42.004;23.088;2023-04-06T01:03:00;14.52;;;7.22;;
39728;SDS011;25402;42.004;23.088;2023-04-06T01:05:26;10.68;;;6.95;;
39728;SDS011;25402;42.004;23.088;2023-04-06T01:07:53;12.65;;;6.90;;
39728;SDS011;25402;42.004;23.088;2023-04-06T01:10:23;13.43;;;7.80;;
39728;SDS011;25402;42.004;23.088;2023-04-06T01:12:51;10.15;;;6.75;;
39728;SDS011;25402;42.004;23.088;2023-04-06T01:15:19;12.48;;;7.28;;
39728;SDS011;25402;42.004;23.088;2023-04-06T01:17:46;11.35;;;7.22;;
39728;SDS011;25402;42.004;23.088;2023-04-06T01:20:13;9.75;;;6.47;;
39728;SDS011;25402;42.004;23.088;2023-04-06T01:22:41;11.20;;;6.85;;
39728;SDS011;25402;42.004;23.088;2023-04-06T01:25:09;9.57;;;6.65;;
39728;SDS011;25402;42.004;23.088;2023-04-06T01:27:35;12.18;;;6.93;;
39728;SDS011;25402;42.004;23.088;2023-04-06T01:30:02;11.88;;;6.82;;
39728;SDS011;25402;42.004;23.088;2023-04-06T01:32:29;10.90;;;6.70;;
39728;SDS011;25402;42.004;23.088;2023-04-06T01:34:56;10.73;;;6.72;;
39728;SDS011;25402;42.004;23.088;2023-04-06T01:37:23;9.88;;;6.85;;
39728;SDS011;25402;42.004;23.088;2023-04-06T01:39:51;11.10;;;7.05;;
39728;SDS011;25402;42.004;23.088;2023-04-06T01:42:18;11.70;;;7.15;;
39728;SDS011;25402;42.004;23.088;2023-04-06T01:44:45;12.27;;;7.45;;
39728;SDS011;25402;42.004;23.088;2023-04-06T01:47:11;11.23;;;6.95;;
39728;SDS011;25402;42.004;23.088;2023-04-06T01:49:38;11.38;;;7.35;;
39728;SDS011;25402;42.004;23.088;2023-04-06T01:52:05;11.85;;;7.57;;
39728;SDS011;25402;42.004;23.088;2023-04-06T01:54:31;10.63;;;6.90;;
39728;SDS011;25402;42.004;23.088;2023-04-06T01:56:59;10.10;;;7.00;;
39728;SDS011;25402;42.004;23.088;2023-04-06T01:59:26;10.57;;;6.82;;
39728;SDS011;25402;42.004;23.088;2023-04-06T02:01:53;10.88;;;7.00;;
39728;SDS011;25402;42.004;23.088;2023-04-06T02:04:20;11.60;;;7.43;;
39728;SDS011;25402;42.004;23.088;2023-04-06T02:06:46;11.18;;;7.18;;
39728;SDS011;25402;42.004;23.088;2023-04-06T02:09:13;16.58;;;7.25;;
39728;SDS011;25402;42.004;23.088;2023-04-06T02:11:40;9.40;;;6.85;;
39728;SDS011;25402;42.004;23.088;2023-04-06T02:14:08;11.70;;;7.63;;
39728;SDS011;25402;42.004;23.088;2023-04-06T02:16:34;14.57;;;7.88;;
39728;SDS011;25402;42.004;23.088;2023-04-06T02:19:01;12.75;;;7.25;;
39728;SDS011;25402;42.004;23.088;2023-04-06T02:21:28;12.73;;;7.60;;
39728;SDS011;25402;42.004;23.088;2023-04-06T02:23:54;13.35;;;7.15;;
39728;SDS011;25402;42.004;23.088;2023-04-06T02:26:21;12.18;;;7.40;;
39728;SDS011;25402;42.004;23.088;2023-04-06T02:28:48;12.52;;;7.97;;
39728;SDS011;25402;42.004;23.088;2023-04-06T02:31:17;12.43;;;7.88;;
39728;SDS011;25402;42.004;23.088;2023-04-06T02:33:43;13.00;;;7.90;;
39728;SDS011;25402;42.004;23.088;2023-04-06T02:36:10;13.13;;;7.75;;
39728;SDS011;25402;42.004;23.088;2023-04-06T02:38:37;13.85;;;8.25;;
39728;SDS011;25402;42.004;23.088;2023-04-06T02:41:03;14.15;;;8.10;;
39728;SDS011;25402;42.004;23.088;2023-04-06T02:43:30;13.45;;;8.00;;
39728;SDS011;25402;42.004;23.088;2023-04-06T02:45:56;15.90;;;8.50;;
39728;SDS011;25402;42.004;23.088;2023-04-06T02:48:24;13.48;;;8.27;;
39728;SDS011;25402;42.004;23.088;2023-04-06T02:50:51;13.27;;;8.23;;
39728;SDS011;25402;42.004;23.088;2023-04-06T02:53:18;11.95;;;8.05;;
39728;SDS011;25402;42.004;23.088;2023-04-06T02:55:45;14.35;;;8.13;;
39728;SDS011;25402;42.004;23.088;2023-04-06T02:58:11;16.13;;;8.50;;
39728;SDS011;25402;42.004;23.088;2023-04-06T03:00:38;13.15;;;8.13;;
39728;SDS011;25402;42.004;23.088;2023-04-06T03:03:04;14.18;;;8.25;;
39728;SDS011;25402;42.004;23.088;2023-04-06T03:05:34;13.18;;;8.45;;
39728;SDS011;25402;42.004;23.088;2023-04-06T03:08:01;19.30;;;8.45;;
39728;SDS011;25402;42.004;23.088;2023-04-06T03:10:27;13.90;;;8.75;;
39728;SDS011;25402;42.004;23.088;2023-04-06T03:12:55;18.58;;;9.30;;
39728;SDS011;25402;42.004;23.088;2023-04-06T03:15:21;15.23;;;8.77;;
39728;SDS011;25402;42.004;23.088;2023-04-06T03:17:48;16.42;;;9.00;;
39728;SDS011;25402;42.004;23.088;2023-04-06T03:20:14;14.43;;;8.55;;
39728;SDS011;25402;42.004;23.088;2023-04-06T03:22:42;13.80;;;8.55;;
39728;SDS011;25402;42.004;23.088;2023-04-06T03:25:09;14.63;;;8.93;;
39728;SDS011;25402;42.004;23.088;2023-04-06T03:27:36;14.95;;;8.90;;
39728;SDS011;25402;42.004;23.088;2023-04-06T03:30:03;21.02;;;9.10;;
39728;SDS011;25402;42.004;23.088;2023-04-06T03:32:30;15.80;;;8.57;;
39728;SDS011;25402;42.004;23.088;2023-04-06T03:34:56;15.50;;;8.85;;
39728;SDS011;25402;42.004;23.088;2023-04-06T03:37:23;15.07;;;9.35;;
39728;SDS011;25402;42.004;23.088;2023-04-06T03:39:51;15.43;;;9.20;;
39728;SDS011;25402;42.004;23.088;2023-04-06T03:42:18;17.17;;;8.55;;
39728;SDS011;25402;42.004;23.088;2023-04-06T03:44:44;12.48;;;6.38;;
39728;SDS011;25402;42.004;23.088;2023-04-06T03:47:11;13.15;;;7.28;;
39728;SDS011;25402;42.004;23.088;2023-04-06T03:49:38;13.18;;;6.57;;
39728;SDS011;25402;42.004;23.088;2023-04-06T03:52:04;24.73;;;6.93;;
39728;SDS011;25402;42.004;23.088;2023-04-06T03:54:31;18.55;;;7.90;;
39728;SDS011;25402;42.004;23.088;2023-04-06T03:56:59;12.35;;;6.78;;
39728;SDS011;25402;42.004;23.088;2023-04-06T03:59:26;13.80;;;7.30;;
39728;SDS011;25402;42.004;23.088;2023-04-06T04:01:52;18.05;;;7.43;;
39728;SDS011;25402;42.004;23.088;2023-04-06T04:04:19;13.13;;;8.23;;
39728;SDS011;25402;42.004;23.088;2023-04-06T04:06:45;12.48;;;7.45;;
39728;SDS011;25402;42.004;23.088;2023-04-06T04:09:12;15.60;;;7.65;;
39728;SDS011;25402;42.004;23.088;2023-04-06T04:11:39;11.25;;;7.13;;
39728;SDS011;25402;42.004;23.088;2023-04-06T04:14:07;13.07;;;6.97;;
39728;SDS011;25402;42.004;23.088;2023-04-06T04:16:34;12.90;;;7.63;;
39728;SDS011;25402;42.004;23.088;2023-04-06T04:19:00;13.38;;;7.20;;
39728;SDS011;25402;42.004;23.088;2023-04-06T04:21:28;13.30;;;7.38;;
39728;SDS011;25402;42.004;23.088;2023-04-06T04:23:55;17.13;;;7.95;;
39728;SDS011;25402;42.004;23.088;2023-04-06T04:26:22;14.93;;;8.07;;
39728;SDS011;25402;42.004;23.088;2023-04-06T04:28:48;17.25;;;8.43;;
39728;SDS011;25402;42.004;23.088;2023-04-06T04:31:16;51.85;;;9.10;;
39728;SDS011;25402;42.004;23.088;2023-04-06T04:33:45;36.10;;;10.50;;
39728;SDS011;25402;42.004;23.088;2023-04-06T04:36:11;52.55;;;13.70;;
39728;SDS011;25402;42.004;23.088;2023-04-06T04:38:38;155.38;;;12.63;;
39728;SDS011;25402;42.004;23.088;2023-04-06T04:41:05;31.58;;;12.73;;
39728;SDS011;25402;42.004;23.088;2023-04-06T04:43:32;19.98;;;10.00;;
39728;SDS011;25402;42.004;23.088;2023-04-06T04:45:59;19.80;;;12.13;;
39728;SDS011;25402;42.004;23.088;2023-04-06T04:48:27;156.15;;;17.55;;
39728;SDS011;25402;42.004;23.088;2023-04-06T04:50:53;20.80;;;9.93;;
39728;SDS011;25402;42.004;23.088;2023-04-06T04:53:21;24.50;;;11.07;;
39728;SDS011;25402;42.004;23.088;2023-04-06T04:55:47;18.02;;;10.00;;
39728;SDS011;25402;42.004;23.088;2023-04-06T04:58:14;20.38;;;9.05;;
39728;SDS011;25402;42.004;23.088;2023-04-06T05:00:42;18.77;;;9.75;;
39728;SDS011;25402;42.004;23.088;2023-04-06T05:03:08;22.63;;;9.85;;
39728;SDS011;25402;42.004;23.088;2023-04-06T05:05:37;21.42;;;9.18;;
39728;SDS011;25402;42.004;23.088;2023-04-06T05:08:04;21.80;;;9.32;;
39728;SDS011;25402;42.004;23.088;2023-04-06T05:10:30;16.27;;;9.07;;
39728;SDS011;25402;42.004;23.088;2023-04-06T05:12:57;23.13;;;9.73;;
39728;SDS011;25402;42.004;23.088;2023-04-06T05:15:24;21.10;;;8.95;;
39728;SDS011;25402;42.004;23.088;2023-04-06T05:17:50;13.85;;;8.93;;
39728;SDS011;25402;42.004;23.088;2023-04-06T05:20:17;17.63;;;8.73;;
39728;SDS011;25402;42.004;23.088;2023-04-06T05:22:46;19.35;;;8.77;;
39728;SDS011;25402;42.004;23.088;2023-04-06T05:25:13;16.40;;;8.95;;
39728;SDS011;25402;42.004;23.088;2023-04-06T05:27:40;17.75;;;8.23;;
39728;SDS011;25402;42.004;23.088;2023-04-06T05:30:07;15.38;;;8.63;;
39728;SDS011;25402;42.004;23.088;2023-04-06T05:32:34;17.95;;;9.77;;
39728;SDS011;25402;42.004;23.088;2023-04-06T05:35:01;21.23;;;9.23;;
39728;SDS011;25402;42.004;23.088;2023-04-06T05:37:27;17.30;;;8.68;;
39728;SDS011;25402;42.004;23.088;2023-04-06T05:39:55;17.20;;;8.10;;
39728;SDS011;25402;42.004;23.088;2023-04-06T05:42:22;17.42;;;8.82;;
39728;SDS011;25402;42.004;23.088;2023-04-06T05:44:49;16.88;;;8.60;;
39728;SDS011;25402;42.004;23.088;2023-04-06T05:47:16;84.13;;;10.55;;
39728;SDS011;25402;42.004;23.088;2023-04-06T05:49:43;13.93;;;8.23;;
39728;SDS011;25402;42.004;23.088;2023-04-06T05:52:10;30.08;;;8.52;;
39728;SDS011;25402;42.004;23.088;2023-04-06T05:54:36;15.88;;;8.23;;
39728;SDS011;25402;42.004;23.088;2023-04-06T05:57:05;14.38;;;7.93;;
39728;SDS011;25402;42.004;23.088;2023-04-06T05:59:31;36.22;;;8.40;;
39728;SDS011;25402;42.004;23.088;2023-04-06T06:01:58;21.08;;;8.52;;
39728;SDS011;25402;42.004;23.088;2023-04-06T06:04:26;14.50;;;8.43;;
39728;SDS011;25402;42.004;23.088;2023-04-06T06:06:53;41.35;;;9.30;;
39728;SDS011;25402;42.004;23.088;2023-04-06T06:09:19;12.82;;;7.15;;
39728;SDS011;25402;42.004;23.088;2023-04-06T06:11:46;19.50;;;8.23;;
39728;SDS011;25402;42.004;23.088;2023-04-06T06:14:14;12.98;;;7.57;;
39728;SDS011;25402;42.004;23.088;2023-04-06T06:16:41;16.95;;;7.30;;
39728;SDS011;25402;42.004;23.088;2023-04-06T06:19:08;11.32;;;7.50;;
39728;SDS011;25402;42.004;23.088;2023-04-06T06:21:35;23.40;;;7.80;;
39728;SDS011;25402;42.004;23.088;2023-04-06T06:24:02;14.30;;;7.05;;
39728;SDS011;25402;42.004;23.088;2023-04-06T06:26:28;14.75;;;7.47;;
39728;SDS011;25402;42.004;23.088;2023-04-06T06:28:55;16.27;;;7.00;;
39728;SDS011;25402;42.004;23.088;2023-04-06T06:31:23;11.52;;;6.65;;
39728;SDS011;25402;42.004;23.088;2023-04-06T06:33:50;13.13;;;7.97;;
39728;SDS011;25402;42.004;23.088;2023-04-06T06:36:17;21.60;;;8.07;;
39728;SDS011;25402;42.004;23.088;2023-04-06T06:38:43;21.67;;;7.55;;
39728;SDS011;25402;42.004;23.088;2023-04-06T06:41:10;21.20;;;7.28;;
39728;SDS011;25402;42.004;23.088;2023-04-06T06:43:37;14.27;;;6.50;;
39728;SDS011;25402;42.004;23.088;2023-04-06T06:46:04;16.98;;;7.10;;
39728;SDS011;25402;42.004;23.088;2023-04-06T06:48:32;13.98;;;6.60;;
39728;SDS011;25402;42.004;23.088;2023-04-06T06:50:59;14.05;;;6.72;;
39728;SDS011;25402;42.004;23.088;2023-04-06T06:53:25;14.23;;;6.43;;
39728;SDS011;25402;42.004;23.088;2023-04-06T06:55:52;15.13;;;8.15;;
39728;SDS011;25402;42.004;23.088;2023-04-06T06:58:19;13.02;;;6.82;;
39728;SDS011;25402;42.004;23.088;2023-04-06T07:00:45;24.40;;;6.45;;
39728;SDS011;25402;42.004;23.088;2023-04-06T07:03:12;13.00;;;6.72;;
39728;SDS011;25402;42.004;23.088;2023-04-06T07:05:41;15.20;;;7.72;;
39728;SDS011;25402;42.004;23.088;2023-04-06T07:08:14;24.17;;;13.60;;
39728;SDS011;25402;42.004;23.088;2023-04-06T07:10:40;27.38;;;12.65;;
39728;SDS011;25402;42.004;23.088;2023-04-06T07:13:07;28.13;;;12.63;;
39728;SDS011;25402;42.004;23.088;2023-04-06T07:15:34;23.58;;;11.10;;
39728;SDS011;25402;42.004;23.088;2023-04-06T07:18:02;12.15;;;5.30;;
39728;SDS011;25402;42.004;23.088;2023-04-06T07:20:29;10.57;;;5.72;;
39728;SDS011;25402;42.004;23.088;2023-04-06T07:22:58;9.13;;;5.38;;
39728;SDS011;25402;42.004;23.088;2023-04-06T07:25:27;8.65;;;5.00;;
39728;SDS011;25402;42.004;23.088;2023-04-06T07:27:54;16.45;;;5.97;;
39728;SDS011;25402;42.004;23.088;2023-04-06T07:30:21;15.85;;;5.72;;
39728;SDS011;25402;42.004;23.088;2023-04-06T07:32:50;8.23;;;5.20;;
39728;SDS011;25402;42.004;23.088;2023-04-06T07:35:16;8.65;;;4.93;;
39728;SDS011;25402;42.004;23.088;2023-04-06T07:37:43;8.70;;;5.25;;
39728;SDS011;25402;42.004;23.088;2023-04-06T07:40:11;14.18;;;5.28;;
39728;SDS011;25402;42.004;23.088;2023-04-06T07:42:38;17.58;;;4.75;;
39728;SDS011;25402;42.004;23.088;2023-04-06T07:45:05;61.33;;;6.38;;
39728;SDS011;25402;42.004;23.088;2023-04-06T07:47:32;12.07;;;5.55;;
39728;SDS011;25402;42.004;23.088;2023-04-06T07:49:59;12.45;;;4.93;;
39728;SDS011;25402;42.004;23.088;2023-04-06T07:52:26;8.27;;;4.50;;
39728;SDS011;25402;42.004;23.088;2023-04-06T07:54:52;17.15;;;5.25;;
39728;SDS011;25402;42.004;23.088;2023-04-06T07:57:21;19.63;;;5.25;;
39728;SDS011;25402;42.004;23.088;2023-04-06T07:59:49;14.07;;;6.30;;
39728;SDS011;25402;42.004;23.088;2023-04-06T08:02:15;12.15;;;5.15;;
39728;SDS011;25402;42.004;23.088;2023-04-06T08:04:42;12.13;;;4.70;;
39728;SDS011;25402;42.004;23.088;2023-04-06T08:07:09;10.43;;;5.63;;
39728;SDS011;25402;42.004;23.088;2023-04-06T08:09:35;11.85;;;5.15;;
39728;SDS011;25402;42.004;23.088;2023-04-06T08:12:03;9.15;;;4.97;;
39728;SDS011;25402;42.004;23.088;2023-04-06T08:14:31;10.27;;;5.50;;
39728;SDS011;25402;42.004;23.088;2023-04-06T08:16:58;16.23;;;4.93;;
39728;SDS011;25402;42.004;23.088;2023-04-06T08:19:24;9.75;;;4.90;;
39728;SDS011;25402;42.004;23.088;2023-04-06T08:21:51;12.07;;;5.03;;
39728;SDS011;25402;42.004;23.088;2023-04-06T08:24:18;8.50;;;4.57;;
39728;SDS011;25402;42.004;23.088;2023-04-06T08:26:45;12.15;;;5.28;;
39728;SDS011;25402;42.004;23.088;2023-04-06T08:29:12;8.32;;;4.90;;
39728;SDS011;25402;42.004;23.088;2023-04-06T08:31:40;8.85;;;4.90;;
39728;SDS011;25402;42.004;23.088;2023-04-06T08:34:08;9.63;;;5.20;;
39728;SDS011;25402;42.004;23.088;2023-04-06T08:36:35;7.85;;;4.55;;
39728;SDS011;25402;42.004;23.088;2023-04-06T08:39:02;11.38;;;4.53;;
39728;SDS011;25402;42.004;23.088;2023-04-06T08:41:29;8.35;;;4.88;;
39728;SDS011;25402;42.004;23.088;2023-04-06T08:43:57;16.83;;;5.55;;
39728;SDS011;25402;42.004;23.088;2023-04-06T08:46:24;9.30;;;5.40;;
39728;SDS011;25402;42.004;23.088;2023-04-06T08:48:57;6.72;;;4.50;;
39728;SDS011;25402;42.004;23.088;2023-04-06T08:51:24;12.20;;;4.85;;
39728;SDS011;25402;42.004;23.088;2023-04-06T08:53:52;14.77;;;5.13;;
39728;SDS011;25402;42.004;23.088;2023-04-06T08:56:19;10.18;;;5.40;;
39728;SDS011;25402;42.004;23.088;2023-04-06T08:58:46;9.88;;;5.00;;
39728;SDS011;25402;42.004;23.088;2023-04-06T09:01:14;7.15;;;4.50;;
39728;SDS011;25402;42.004;23.088;2023-04-06T09:03:41;7.75;;;4.53;;
39728;SDS011;25402;42.004;23.088;2023-04-06T09:06:10;17.38;;;5.30;;
39728;SDS011;25402;42.004;23.088;2023-04-06T09:08:38;9.02;;;4.97;;
39728;SDS011;25402;42.004;23.088;2023-04-06T09:11:06;12.45;;;5.63;;
39728;SDS011;25402;42.004;23.088;2023-04-06T09:13:44;7.53;;;4.93;;
39728;SDS011;25402;42.004;23.088;2023-04-06T09:16:10;9.73;;;5.50;;
39728;SDS011;25402;42.004;23.088;2023-04-06T09:18:37;9.27;;;5.75;;
39728;SDS011;25402;42.004;23.088;2023-04-06T09:21:06;10.55;;;5.05;;
39728;SDS011;25402;42.004;23.088;2023-04-06T09:23:35;8.20;;;4.82;;
39728;SDS011;25402;42.004;23.088;2023-04-06T09:26:05;16.15;;;5.35;;
39728;SDS011;25402;42.004;23.088;2023-04-06T09:28:40;9.48;;;5.45;;
39728;SDS011;25402;42.004;23.088;2023-04-06T09:31:07;8.55;;;5.15;;
39728;SDS011;25402;42.004;23.088;2023-04-06T09:33:36;10.40;;;5.60;;
39728;SDS011;25402;42.004;23.088;2023-04-06T09:36:04;7.95;;;4.15;;
39728;SDS011;25402;42.004;23.088;2023-04-06T09:38:30;9.90;;;4.72;;
39728;SDS011;25402;42.004;23.088;2023-04-06T09:41:00;11.50;;;4.90;;
39728;SDS011;25402;42.004;23.088;2023-04-06T09:43:27;11.95;;;5.05;;
39728;SDS011;25402;42.004;23.088;2023-04-06T09:45:55;9.68;;;4.72;;
39728;SDS011;25402;42.004;23.088;2023-04-06T09:48:22;10.52;;;4.57;;
39728;SDS011;25402;42.004;23.088;2023-04-06T09:50:52;6.75;;;3.88;;
39728;SDS011;25402;42.004;23.088;2023-04-06T09:53:23;13.57;;;4.15;;
39728;SDS011;25402;42.004;23.088;2023-04-06T09:55:51;5.25;;;3.78;;
39728;SDS011;25402;42.004;23.088;2023-04-06T09:58:23;6.88;;;4.72;;
39728;SDS011;25402;42.004;23.088;2023-04-06T10:00:53;6.97;;;4.40;;
39728;SDS011;25402;42.004;23.088;2023-04-06T10:03:26;9.18;;;4.28;;
39728;SDS011;25402;42.004;23.088;2023-04-06T10:05:55;12.90;;;4.28;;
39728;SDS011;25402;42.004;23.088;2023-04-06T10:08:24;6.28;;;4.10;;
39728;SDS011;25402;42.004;23.088;2023-04-06T10:10:53;10.68;;;4.78;;
39728;SDS011;25402;42.004;23.088;2023-04-06T10:13:20;6.72;;;4.68;;
39728;SDS011;25402;42.004;23.088;2023-04-06T10:15:48;9.00;;;4.70;;
39728;SDS011;25402;42.004;23.088;2023-04-06T10:18:15;6.68;;;4.30;;
39728;SDS011;25402;42.004;23.088;2023-04-06T10:20:43;9.35;;;4.85;;
39728;SDS011;25402;42.004;23.088;2023-04-06T10:23:12;8.88;;;4.50;;
39728;SDS011;25402;42.004;23.088;2023-04-06T10:25:51;11.98;;;5.00;;
39728;SDS011;25402;42.004;23.088;2023-04-06T10:28:19;8.43;;;4.50;;
39728;SDS011;25402;42.004;23.088;2023-04-06T10:30:46;8.35;;;4.72;;
39728;SDS011;25402;42.004;23.088;2023-04-06T10:33:15;6.40;;;4.22;;
39728;SDS011;25402;42.004;23.088;2023-04-06T10:35:42;6.35;;;4.78;;
39728;SDS011;25402;42.004;23.088;2023-04-06T10:38:09;44.22;;;5.72;;
39728;SDS011;25402;42.004;23.088;2023-04-06T10:40:37;12.52;;;4.68;;
39728;SDS011;25402;42.004;23.088;2023-04-06T10:43:07;9.02;;;4.45;;
39728;SDS011;25402;42.004;23.088;2023-04-06T10:45:34;9.15;;;4.53;;
39728;SDS011;25402;42.004;23.088;2023-04-06T10:48:12;6.80;;;4.43;;
39728;SDS011;25402;42.004;23.088;2023-04-06T10:50:40;8.93;;;4.38;;
39728;SDS011;25402;42.004;23.088;2023-04-06T10:53:07;6.85;;;4.45;;
39728;SDS011;25402;42.004;23.088;2023-04-06T10:55:34;5.93;;;4.10;;
39728;SDS011;25402;42.004;23.088;2023-04-06T10:58:01;10.77;;;4.38;;
39728;SDS011;25402;42.004;23.088;2023-04-06T11:00:28;11.38;;;4.90;;
39728;SDS011;25402;42.004;23.088;2023-04-06T11:02:58;10.10;;;4.70;;
39728;SDS011;25402;42.004;23.088;2023-04-06T11:05:25;5.65;;;4.35;;
39728;SDS011;25402;42.004;23.088;2023-04-06T11:07:53;7.05;;;4.50;;
39728;SDS011;25402;42.004;23.088;2023-04-06T11:10:21;13.55;;;4.80;;
39728;SDS011;25402;42.004;23.088;2023-04-06T11:12:52;6.65;;;4.75;;
39728;SDS011;25402;42.004;23.088;2023-04-06T11:15:19;14.77;;;5.38;;
39728;SDS011;25402;42.004;23.088;2023-04-06T11:17:46;12.35;;;5.03;;
39728;SDS011;25402;42.004;23.088;2023-04-06T11:20:14;20.10;;;4.78;;
39728;SDS011;25402;42.004;23.088;2023-04-06T11:22:49;7.38;;;4.50;;
39728;SDS011;25402;42.004;23.088;2023-04-06T11:27:44;6.45;;;4.20;;
39728;SDS011;25402;42.004;23.088;2023-04-06T11:30:11;5.97;;;3.90;;
39728;SDS011;25402;42.004;23.088;2023-04-06T11:32:41;8.20;;;4.25;;
39728;SDS011;25402;42.004;23.088;2023-04-06T11:35:10;9.18;;;4.57;;
39728;SDS011;25402;42.004;23.088;2023-04-06T11:37:38;8.05;;;4.45;;
39728;SDS011;25402;42.004;23.088;2023-04-06T11:40:07;6.18;;;4.40;;
39728;SDS011;25402;42.004;23.088;2023-04-06T11:42:34;7.85;;;4.57;;
39728;SDS011;25402;42.004;23.088;2023-04-06T11:45:02;6.28;;;4.18;;
39728;SDS011;25402;42.004;23.088;2023-04-06T11:47:30;5.90;;;4.07;;
39728;SDS011;25402;42.004;23.088;2023-04-06T11:50:04;6.63;;;4.18;;
39728;SDS011;25402;42.004;23.088;2023-04-06T11:52:32;12.07;;;4.30;;
39728;SDS011;25402;42.004;23.088;2023-04-06T11:54:58;5.70;;;3.97;;
39728;SDS011;25402;42.004;23.088;2023-04-06T11:57:25;11.50;;;4.18;;
39728;SDS011;25402;42.004;23.088;2023-04-06T11:59:54;6.88;;;3.85;;
39728;SDS011;25402;42.004;23.088;2023-04-06T12:02:23;5.20;;;3.90;;
39728;SDS011;25402;42.004;23.088;2023-04-06T12:04:52;5.93;;;3.88;;
39728;SDS011;25402;42.004;23.088;2023-04-06T12:07:19;5.50;;;4.18;;
39728;SDS011;25402;42.004;23.088;2023-04-06T12:09:48;12.45;;;7.82;;
39728;SDS011;25402;42.004;23.088;2023-04-06T12:12:15;11.38;;;6.50;;
39728;SDS011;25402;42.004;23.088;2023-04-06T12:14:42;8.32;;;5.15;;
39728;SDS011;25402;42.004;23.088;2023-04-06T12:17:10;6.55;;;4.72;;
39728;SDS011;25402;42.004;23.088;2023-04-06T12:19:38;6.97;;;4.82;;
39728;SDS011;25402;42.004;23.088;2023-04-06T12:22:05;8.15;;;4.93;;
39728;SDS011;25402;42.004;23.088;2023-04-06T12:24:32;6.82;;;4.63;;
39728;SDS011;25402;42.004;23.088;2023-04-06T12:26:59;6.93;;;4.80;;
39728;SDS011;25402;42.004;23.088;2023-04-06T12:29:26;7.30;;;4.72;;
39728;SDS011;25402;42.004;23.088;2023-04-06T12:31:53;11.27;;;5.40;;
39728;SDS011;25402;42.004;23.088;2023-04-06T12:34:20;8.40;;;5.32;;
39728;SDS011;25402;42.004;23.088;2023-04-06T12:36:48;10.63;;;5.38;;
39728;SDS011;25402;42.004;23.088;2023-04-06T12:39:15;9.65;;;5.25;;
39728;SDS011;25402;42.004;23.088;2023-04-06T12:41:41;9.00;;;5.25;;
39728;SDS011;25402;42.004;23.088;2023-04-06T12:44:08;8.13;;;5.45;;
39728;SDS011;25402;42.004;23.088;2023-04-06T12:46:36;8.00;;;4.90;;
39728;SDS011;25402;42.004;23.088;2023-04-06T12:49:03;8.65;;;5.90;;
39728;SDS011;25402;42.004;23.088;2023-04-06T12:51:29;7.70;;;5.50;;
39728;SDS011;25402;42.004;23.088;2023-04-06T12:53:58;14.15;;;5.38;;
39728;SDS011;25402;42.004;23.088;2023-04-06T12:56:25;7.72;;;5.53;;
39728;SDS011;25402;42.004;23.088;2023-04-06T12:58:52;9.52;;;5.97;;
39728;SDS011;25402;42.004;23.088;2023-04-06T13:01:20;7.85;;;5.10;;
39728;SDS011;25402;42.004;23.088;2023-04-06T13:03:46;19.40;;;5.97;;
39728;SDS011;25402;42.004;23.088;2023-04-06T13:06:13;12.07;;;5.57;;
39728;SDS011;25402;42.004;23.088;2023-04-06T13:08:40;7.70;;;4.78;;
39728;SDS011;25402;42.004;23.088;2023-04-06T13:11:08;7.82;;;5.20;;
39728;SDS011;25402;42.004;23.088;2023-04-06T13:13:35;7.70;;;5.30;;
39728;SDS011;25402;42.004;23.088;2023-04-06T13:16:03;14.00;;;5.70;;
39728;SDS011;25402;42.004;23.088;2023-04-06T13:18:30;9.48;;;5.72;;
39728;SDS011;25402;42.004;23.088;2023-04-06T13:20:57;10.23;;;5.93;;
39728;SDS011;25402;42.004;23.088;2023-04-06T13:23:24;10.80;;;6.07;;
39728;SDS011;25402;42.004;23.088;2023-04-06T13:25:56;10.65;;;5.35;;
39728;SDS011;25402;42.004;23.088;2023-04-06T13:28:25;19.70;;;5.82;;
39728;SDS011;25402;42.004;23.088;2023-04-06T13:30:52;9.75;;;5.20;;
39728;SDS011;25402;42.004;23.088;2023-04-06T13:33:19;9.55;;;5.50;;
39728;SDS011;25402;42.004;23.088;2023-04-06T13:35:45;16.23;;;4.97;;
39728;SDS011;25402;42.004;23.088;2023-04-06T13:38:14;9.93;;;5.40;;
39728;SDS011;25402;42.004;23.088;2023-04-06T13:40:41;14.57;;;5.78;;
39728;SDS011;25402;42.004;23.088;2023-04-06T13:43:08;8.65;;;5.43;;
39728;SDS011;25402;42.004;23.088;2023-04-06T13:45:36;12.50;;;6.32;;
39728;SDS011;25402;42.004;23.088;2023-04-06T13:48:03;10.20;;;5.72;;
39728;SDS011;25402;42.004;23.088;2023-04-06T13:50:30;8.00;;;5.22;;
39728;SDS011;25402;42.004;23.088;2023-04-06T13:52:57;10.63;;;5.75;;
39728;SDS011;25402;42.004;23.088;2023-04-06T13:55:24;10.93;;;5.70;;
39728;SDS011;25402;42.004;23.088;2023-04-06T13:57:51;7.97;;;5.45;;
39728;SDS011;25402;42.004;23.088;2023-04-06T14:00:18;11.15;;;6.32;;
39728;SDS011;25402;42.004;23.088;2023-04-06T14:02:46;22.92;;;6.45;;
39728;SDS011;25402;42.004;23.088;2023-04-06T14:05:13;10.30;;;5.60;;
39728;SDS011;25402;42.004;23.088;2023-04-06T14:07:39;10.60;;;6.00;;
39728;SDS011;25402;42.004;23.088;2023-04-06T14:10:07;10.98;;;5.97;;
39728;SDS011;25402;42.004;23.088;2023-04-06T14:12:38;15.45;;;5.68;;
39728;SDS011;25402;42.004;23.088;2023-04-06T14:15:06;9.23;;;5.53;;
39728;SDS011;25402;42.004;23.088;2023-04-06T14:17:33;16.27;;;6.45;;
39728;SDS011;25402;42.004;23.088;2023-04-06T14:20:01;10.57;;;6.55;;
39728;SDS011;25402;42.004;23.088;2023-04-06T14:22:27;15.35;;;7.20;;
39728;SDS011;25402;42.004;23.088;2023-04-06T14:24:54;13.27;;;6.70;;
39728;SDS011;25402;42.004;23.088;2023-04-06T14:27:20;13.85;;;6.55;;
39728;SDS011;25402;42.004;23.088;2023-04-06T14:29:47;15.25;;;6.55;;